Time;durP1;ratioP1;P1;durP2;ratioP2;P2;SDS_P1;SDS_P2;PMS_P1;PMS_P2;Temp;Humidity;BMP_temperature;BMP_pressure;BME280_temperature;BME280_humidity;BME280_pressure;Samples;Min_cycle;Max_cycle;Signal;HPM_P1;HPM_P2
2022/05/26 00:01:40;;;;;;;;;;;16.20;99.90;;;;;;5073564;28;19908;-77
2022/05/26 00:04:06;;;;;;;;;;;16.10;99.90;;;;;;5073686;28;19909;-76
2022/05/26 00:06:32;;;;;;;;;;;16.20;99.90;;;;;;5073497;28;19912;-74
2022/05/26 00:08:58;;;;;;;;;;;16.10;99.90;;;;;;5075336;28;19913;-75
2022/05/26 00:11:31;;;;;;;;;;;16.20;99.90;;;;;;5077544;28;20334;-77
2022/05/26 00:13:57;;;;;;;;;;;16.20;99.90;;;;;;5077547;28;19908;-75
2022/05/26 00:16:23;;;;;;;;;;;16.20;99.90;;;;;;5077491;28;19915;-75
2022/05/26 00:18:48;;;;;;;;;;;16.20;99.90;;;;;;5077549;28;19909;-77
2022/05/26 00:21:15;;;;;;;;;;;16.30;99.90;;;;;;5059415;28;19913;-76
2022/05/26 00:23:40;;;;;;;;;;;16.30;99.90;;;;;;5093006;28;19954;-74
2022/05/26 00:26:06;;;;;;;;;;;16.20;99.90;;;;;;5077522;28;19943;-76
2022/05/26 00:28:31;;;;;;;;;;;16.10;99.90;;;;;;5077209;28;19924;-75
2022/05/26 00:30:57;;;;;;;;;;;16.10;99.90;;;;;;5077222;28;20288;-75
2022/05/26 00:33:23;;;;;;;;;;;16.00;99.90;;;;;;5077157;28;19993;-75
2022/05/26 00:35:49;;;;;;;;;;;16.00;99.90;;;;;;5076962;28;20007;-74
2022/05/26 00:38:15;;;;;;;;;;;16.00;99.90;;;;;;5077273;28;19908;-76
2022/05/26 00:40:42;;;;;;;;;;;15.90;99.90;;;;;;5076984;28;19909;-75
2022/05/26 00:43:08;;;;;;;;;;;15.90;99.90;;;;;;5076961;28;19908;-74
2022/05/26 00:46:03;;;;;;;;;;;15.90;99.90;;;;;;5077168;28;19954;-77
2022/05/26 00:48:34;;;;;;;;;;;16.10;99.90;;;;;;5063243;28;19920;-75
2022/05/26 00:51:01;;;;;;;;;;;16.00;99.90;;;;;;5076817;28;19915;-76
2022/05/26 00:53:31;;;;;;;;;;;16.00;99.90;;;;;;5058829;28;19914;-76
2022/05/26 00:56:01;;;;;;;;;;;16.00;99.90;;;;;;5076874;28;20356;-77
2022/05/26 00:58:29;;;;;;;;;;;16.00;99.90;;;;;;5076799;28;19915;-75
2022/05/26 01:00:57;;;;;;;;;;;16.20;99.90;;;;;;5058661;28;19908;-76
2022/05/26 01:03:28;;;;;;;;;;;16.20;99.90;;;;;;5076613;28;20403;-74
2022/05/26 01:06:00;;;;;;;;;;;16.20;99.90;;;;;;5092100;28;20363;-77
2022/05/26 01:08:29;;;;;;;;;;;16.10;99.90;;;;;;5058488;28;19913;-76
2022/05/26 01:10:54;;;;;;;;;;;16.10;99.90;;;;;;5076409;28;19915;-76
2022/05/26 01:13:21;;;;;;;;;;;16.00;99.90;;;;;;5076600;28;19908;-74
2022/05/26 01:15:51;;;;;;;;;;;16.00;99.90;;;;;;5058434;28;20292;-76
2022/05/26 01:18:26;;;;;;;;;;;15.90;99.90;;;;;;5058079;28;19909;-74
2022/05/26 01:20:55;;;;;;;;;;;16.00;99.90;;;;;;5075332;28;19912;-76
2022/05/26 01:23:32;;;;;;;;;;;16.00;99.90;;;;;;5076264;28;19912;-76
2022/05/26 01:26:10;;;;;;;;;;;16.20;99.90;;;;;;5076224;28;19909;-77
2022/05/26 01:28:54;;;;;;;;;;;16.10;99.90;;;;;;5076063;28;20435;-76
2022/05/26 01:31:20;;;;;;;;;;;15.90;99.90;;;;;;5076086;28;19908;-76
2022/05/26 01:34:03;;;;;;;;;;;16.00;99.90;;;;;;5076059;28;20281;-74
2022/05/26 01:36:34;;;;;;;;;;;16.00;99.90;;;;;;5075836;28;19920;-76
2022/05/26 01:39:00;;;;;;;;;;;16.00;99.90;;;;;;5076149;28;19909;-75
2022/05/26 01:41:37;;;;;;;;;;;15.90;99.90;;;;;;5057960;28;20295;-76
2022/05/26 01:44:07;;;;;;;;;;;15.80;99.90;;;;;;5076005;28;20003;-75
2022/05/26 01:46:43;;;;;;;;;;;15.80;99.90;;;;;;5057857;28;19999;-76
2022/05/26 01:49:27;;;;;;;;;;;15.90;99.90;;;;;;5075853;28;20396;-76
2022/05/26 01:51:52;;;;;;;;;;;15.70;99.90;;;;;;5075830;28;19912;-76
2022/05/26 01:54:21;;;;;;;;;;;15.60;99.90;;;;;;5075678;28;20261;-74
2022/05/26 01:57:00;;;;;;;;;;;15.60;99.90;;;;;;5075816;28;20272;-77
2022/05/26 01:59:30;;;;;;;;;;;15.70;99.90;;;;;;5057550;28;19915;-75
2022/05/26 02:01:58;;;;;;;;;;;15.80;99.90;;;;;;5075566;28;19962;-77
2022/05/26 02:04:27;;;;;;;;;;;15.80;99.90;;;;;;5075494;28;19915;-75
2022/05/26 02:06:54;;;;;;;;;;;15.70;99.90;;;;;;5075357;28;20433;-76
2022/05/26 02:09:22;;;;;;;;;;;15.70;99.90;;;;;;5075332;28;19912;-75
2022/05/26 02:12:08;;;;;;;;;;;15.60;99.90;;;;;;5075290;28;19916;-76
2022/05/26 02:14:38;;;;;;;;;;;15.80;99.90;;;;;;5074389;28;19909;-75
2022/05/26 02:17:07;;;;;;;;;;;15.90;99.90;;;;;;5075202;28;19909;-74
2022/05/26 02:19:35;;;;;;;;;;;15.90;99.90;;;;;;5075183;28;19943;-74
2022/05/26 02:22:24;;;;;;;;;;;15.90;99.90;;;;;;5075084;28;20001;-76
2022/05/26 02:24:56;;;;;;;;;;;15.90;99.90;;;;;;5066760;28;19913;-76
2022/05/26 02:27:23;;;;;;;;;;;16.00;99.90;;;;;;5075256;28;19912;-76
2022/05/26 02:29:52;;;;;;;;;;;15.90;99.90;;;;;;5074929;28;19913;-76
2022/05/26 02:32:29;;;;;;;;;;;15.80;99.90;;;;;;5074614;28;19915;-74
2022/05/26 02:34:57;;;;;;;;;;;15.80;99.90;;;;;;5075087;28;19950;-75
2022/05/26 02:37:24;;;;;;;;;;;15.80;99.90;;;;;;5074452;28;19978;-75
2022/05/26 02:39:50;;;;;;;;;;;15.90;99.90;;;;;;5074807;28;19908;-76
2022/05/26 02:42:15;;;;;;;;;;;15.90;99.90;;;;;;5074775;28;20399;-74
2022/05/26 02:44:42;;;;;;;;;;;15.80;99.90;;;;;;5074716;28;19936;-75
2022/05/26 02:47:13;;;;;;;;;;;15.70;99.90;;;;;;5074683;28;19908;-76
2022/05/26 02:49:50;;;;;;;;;;;15.60;99.90;;;;;;5074505;28;19920;-75
2022/05/26 02:52:16;;;;;;;;;;;15.60;99.90;;;;;;5056358;28;19908;-78
2022/05/26 02:54:42;;;;;;;;;;;15.60;99.90;;;;;;5074442;28;19950;-76
2022/05/26 02:57:07;;;;;;;;;;;15.50;99.90;;;;;;5074438;28;19948;-77
2022/05/26 02:59:33;;;;;;;;;;;15.40;99.90;;;;;;5056639;28;19909;-75
2022/05/26 03:02:02;;;;;;;;;;;15.40;99.90;;;;;;5074369;28;19913;-74
2022/05/26 03:04:45;;;;;;;;;;;15.20;99.90;;;;;;5074490;28;19908;-74
2022/05/26 03:07:20;;;;;;;;;;;15.40;99.90;;;;;;5074490;28;19909;-75
2022/05/26 03:09:46;;;;;;;;;;;15.40;99.90;;;;;;5074102;28;19913;-76
2022/05/26 03:12:24;;;;;;;;;;;15.40;99.90;;;;;;5074085;28;19912;-76
2022/05/26 03:14:49;;;;;;;;;;;15.50;99.90;;;;;;5074313;28;20403;-75
2022/05/26 03:17:15;;;;;;;;;;;15.40;99.90;;;;;;5074356;28;19909;-76
2022/05/26 03:19:41;;;;;;;;;;;15.40;99.90;;;;;;5074134;28;19916;-76
2022/05/26 03:22:06;;;;;;;;;;;15.50;99.90;;;;;;5074109;28;19932;-76
2022/05/26 03:24:33;;;;;;;;;;;15.50;99.90;;;;;;5073925;28;19912;-74
2022/05/26 03:26:58;;;;;;;;;;;15.40;99.90;;;;;;5074196;28;19908;-76
2022/05/26 03:29:24;;;;;;;;;;;15.50;99.90;;;;;;5074021;28;19920;-76
2022/05/26 03:31:49;;;;;;;;;;;15.50;99.90;;;;;;5073881;28;19909;-76
2022/05/26 03:42:27;;;;;;;;;;;15.30;99.90;;;;;;5073356;28;19961;-76
2022/05/26 03:44:53;;;;;;;;;;;15.30;99.90;;;;;;5055341;28;20007;-76
2022/05/26 03:47:19;;;;;;;;;;;15.40;99.90;;;;;;5055758;28;19915;-76
2022/05/26 03:49:44;;;;;;;;;;;15.30;99.90;;;;;;5073600;28;19912;-76
2022/05/26 03:52:10;;;;;;;;;;;15.40;99.90;;;;;;5073427;28;19909;-75
2022/05/26 03:54:36;;;;;;;;;;;15.30;99.90;;;;;;5073607;28;20403;-77
2022/05/26 03:57:03;;;;;;;;;;;15.30;99.90;;;;;;5073592;28;19912;-76
2022/05/26 03:59:29;;;;;;;;;;;15.50;99.90;;;;;;5073636;28;19915;-78
2022/05/26 04:01:55;;;;;;;;;;;15.40;99.90;;;;;;5073661;28;19908;-77
2022/05/26 04:04:21;;;;;;;;;;;15.20;99.90;;;;;;5073555;28;19908;-75
2022/05/26 04:06:48;;;;;;;;;;;14.90;99.90;;;;;;5073510;28;19912;-76
2022/05/26 04:09:14;;;;;;;;;;;14.80;99.90;;;;;;5073380;28;19955;-76
2022/05/26 04:11:39;;;;;;;;;;;14.80;99.90;;;;;;5073564;28;19908;-74
2022/05/26 04:14:05;;;;;;;;;;;14.70;99.90;;;;;;5073507;28;19966;-76
2022/05/26 04:16:31;;;;;;;;;;;14.70;99.90;;;;;;5073389;28;19913;-75
2022/05/26 04:18:56;;;;;;;;;;;14.50;99.90;;;;;;5073395;28;19987;-77
2022/05/26 04:21:22;;;;;;;;;;;14.50;99.90;;;;;;5073392;28;19921;-75
2022/05/26 04:23:47;;;;;;;;;;;14.50;99.90;;;;;;5073381;28;19909;-77
2022/05/26 04:26:13;;;;;;;;;;;14.30;99.90;;;;;;5073537;28;19909;-75
2022/05/26 04:28:39;;;;;;;;;;;14.30;99.90;;;;;;5073299;28;19955;-76
2022/05/26 04:31:04;;;;;;;;;;;14.30;99.90;;;;;;5073294;28;19958;-74
2022/05/26 04:33:31;;;;;;;;;;;14.30;99.90;;;;;;5073699;28;19909;-77
2022/05/26 04:35:57;;;;;;;;;;;14.40;99.90;;;;;;5073141;28;19982;-76
2022/05/26 04:38:23;;;;;;;;;;;14.30;99.90;;;;;;5073275;28;19909;-76
2022/05/26 04:40:58;;;;;;;;;;;14.40;99.90;;;;;;5073234;28;20368;-75
2022/05/26 04:43:24;;;;;;;;;;;14.30;99.90;;;;;;5073210;28;20021;-74
2022/05/26 04:45:50;;;;;;;;;;;14.30;99.90;;;;;;5073149;28;20005;-76
2022/05/26 04:48:17;;;;;;;;;;;14.30;99.90;;;;;;5073046;28;19912;-75
2022/05/26 04:50:43;;;;;;;;;;;14.40;99.90;;;;;;5073135;28;20066;-78
2022/05/26 04:53:08;;;;;;;;;;;14.50;99.90;;;;;;5073095;28;19970;-78
2022/05/26 04:55:34;;;;;;;;;;;14.60;99.90;;;;;;5075767;28;20003;-74
2022/05/26 04:57:59;;;;;;;;;;;14.60;99.90;;;;;;5076770;28;19908;-75
2022/05/26 05:00:25;;;;;;;;;;;14.60;99.90;;;;;;5076768;28;20322;-76
2022/05/26 05:02:53;;;;;;;;;;;14.40;99.90;;;;;;5076625;28;19962;-76
2022/05/26 05:05:19;;;;;;;;;;;14.40;99.90;;;;;;5058685;28;19909;-75
2022/05/26 05:07:44;;;;;;;;;;;14.50;99.90;;;;;;5076668;28;19914;-74
2022/05/26 05:10:10;;;;;;;;;;;14.60;99.90;;;;;;5076493;28;20326;-77
2022/05/26 05:12:36;;;;;;;;;;;14.80;99.90;;;;;;5076386;28;19908;-77
2022/05/26 05:15:02;;;;;;;;;;;14.90;99.90;;;;;;5076728;28;19912;-76
2022/05/26 05:17:28;;;;;;;;;;;15.20;99.90;;;;;;5076544;28;19908;-75
2022/05/26 05:19:53;;;;;;;;;;;15.40;99.90;;;;;;5076321;28;20361;-77
2022/05/26 05:22:19;;;;;;;;;;;15.50;99.90;;;;;;5076430;28;19970;-74
2022/05/26 05:24:52;;;;;;;;;;;15.50;99.90;;;;;;5076259;28;19909;-76
2022/05/26 05:27:18;;;;;;;;;;;15.20;99.90;;;;;;5076652;28;19916;-75
2022/05/26 05:29:44;;;;;;;;;;;15.10;99.90;;;;;;5076084;28;19920;-76
2022/05/26 05:32:22;;;;;;;;;;;15.00;99.90;;;;;;5076143;28;19942;-76
2022/05/26 05:34:54;;;;;;;;;;;15.20;99.90;;;;;;5075735;28;19961;-77
2022/05/26 05:37:19;;;;;;;;;;;15.30;99.90;;;;;;5075906;28;19920;-76
2022/05/26 05:39:45;;;;;;;;;;;15.30;99.90;;;;;;5076108;28;19912;-76
2022/05/26 05:42:11;;;;;;;;;;;15.30;99.90;;;;;;5075966;28;20287;-76
2022/05/26 05:44:37;;;;;;;;;;;15.40;99.90;;;;;;5075884;28;20299;-76
2022/05/26 05:47:03;;;;;;;;;;;15.40;99.90;;;;;;5091409;28;19915;-74
2022/05/26 05:49:32;;;;;;;;;;;15.60;99.90;;;;;;5091273;28;19916;-78
2022/05/26 05:52:04;;;;;;;;;;;15.60;99.90;;;;;;5075821;28;19913;-74
2022/05/26 05:54:30;;;;;;;;;;;15.80;99.90;;;;;;5075623;28;19962;-75
2022/05/26 05:56:56;;;;;;;;;;;15.70;99.90;;;;;;5075819;28;19908;-77
2022/05/26 05:59:21;;;;;;;;;;;15.70;99.90;;;;;;5075893;28;20326;-75
2022/05/26 06:01:47;;;;;;;;;;;15.60;99.90;;;;;;5075586;28;19947;-75
2022/05/26 06:04:12;;;;;;;;;;;15.90;99.90;;;;;;5075565;28;20364;-77
2022/05/26 06:06:39;;;;;;;;;;;16.00;99.90;;;;;;5074902;28;19908;-75
2022/05/26 06:09:05;;;;;;;;;;;16.00;99.90;;;;;;5075372;28;19948;-77
2022/05/26 06:11:31;;;;;;;;;;;16.20;99.90;;;;;;5057387;28;19995;-76
2022/05/26 06:13:57;;;;;;;;;;;16.30;99.90;;;;;;5075392;28;20395;-76
2022/05/26 06:16:23;;;;;;;;;;;16.30;99.90;;;;;;5057345;28;19934;-75
2022/05/26 06:18:50;;;;;;;;;;;16.60;99.90;;;;;;5075268;28;19947;-75
2022/05/26 06:21:16;;;;;;;;;;;16.50;99.90;;;;;;5075137;28;19995;-75
2022/05/26 06:23:41;;;;;;;;;;;16.50;99.90;;;;;;5075155;28;19997;-77
2022/05/26 06:26:07;;;;;;;;;;;16.40;99.90;;;;;;5075345;28;19909;-75
2022/05/26 06:31:20;;;;;;;;;;;16.60;99.90;;;;;;5075032;28;20053;-76
2022/05/26 06:39:14;;;;;;;;;;;17.10;99.90;;;;;;5074789;28;19919;-76
2022/05/26 06:44:23;;;;;;;;;;;17.30;99.90;;;;;;5074454;28;19916;-76
2022/05/26 06:46:49;;;;;;;;;;;17.30;99.90;;;;;;5074741;28;19908;-74
2022/05/26 06:49:15;;;;;;;;;;;17.30;99.90;;;;;;5074938;28;19917;-75
2022/05/26 06:51:43;;;;;;;;;;;17.20;99.90;;;;;;5056653;28;20279;-75
2022/05/26 06:54:09;;;;;;;;;;;17.30;99.90;;;;;;5056594;28;19908;-76
2022/05/26 06:56:35;;;;;;;;;;;17.40;99.90;;;;;;5074617;28;20368;-77
2022/05/26 06:59:00;;;;;;;;;;;17.60;99.90;;;;;;5074456;28;19908;-74
2022/05/26 07:01:26;;;;;;;;;;;17.80;99.90;;;;;;5074411;28;19912;-76
2022/05/26 07:03:51;;;;;;;;;;;17.60;99.90;;;;;;5074340;28;19915;-75
2022/05/26 07:06:20;;;;;;;;;;;17.70;99.90;;;;;;5074344;28;19913;-75
2022/05/26 07:08:47;;;;;;;;;;;17.40;99.90;;;;;;5074180;28;20380;-76
2022/05/26 07:11:13;;;;;;;;;;;17.40;99.90;;;;;;5074145;28;19919;-76
2022/05/26 07:13:38;;;;;;;;;;;17.70;99.90;;;;;;5056228;28;19909;-75
2022/05/26 07:16:04;;;;;;;;;;;17.80;99.90;;;;;;5074382;28;20406;-77
2022/05/26 07:18:30;;;;;;;;;;;17.80;99.90;;;;;;5055287;28;19948;-77
2022/05/26 07:20:56;;;;;;;;;;;17.80;99.90;;;;;;5074406;28;20385;-75
2022/05/26 07:23:21;;;;;;;;;;;17.90;99.90;;;;;;5056133;28;20140;-77
2022/05/26 07:25:47;;;;;;;;;;;18.00;99.90;;;;;;5074022;28;19913;-75
2022/05/26 07:28:13;;;;;;;;;;;18.00;99.90;;;;;;5073965;28;20020;-76
2022/05/26 07:30:39;;;;;;;;;;;18.10;99.90;;;;;;5073948;28;19916;-77
2022/05/26 07:33:05;;;;;;;;;;;18.00;99.90;;;;;;5073865;28;20431;-76
2022/05/26 07:35:30;;;;;;;;;;;17.90;99.90;;;;;;5073903;28;19936;-76
2022/05/26 07:43:26;;;;;;;;;;;18.20;99.90;;;;;;5073575;28;19916;-76
2022/05/26 07:45:51;;;;;;;;;;;18.60;99.90;;;;;;5055791;28;20291;-74
2022/05/26 07:48:17;;;;;;;;;;;18.60;99.90;;;;;;5073687;28;19919;-76
2022/05/26 07:50:42;;;;;;;;;;;18.50;99.90;;;;;;5073708;28;20442;-77
2022/05/26 07:53:08;;;;;;;;;;;18.50;99.90;;;;;;5055718;28;20327;-75
2022/05/26 07:55:34;;;;;;;;;;;18.60;99.90;;;;;;5073648;28;19915;-75
2022/05/26 07:57:59;;;;;;;;;;;18.80;99.90;;;;;;5073643;28;19962;-75
2022/05/26 08:00:25;;;;;;;;;;;18.90;99.90;;;;;;5073562;28;19954;-77
2022/05/26 08:02:51;;;;;;;;;;;18.80;99.90;;;;;;5073231;28;19913;-77
2022/05/26 08:05:16;;;;;;;;;;;18.90;99.90;;;;;;5073491;28;19940;-77
2022/05/26 08:07:43;;;;;;;;;;;18.90;99.90;;;;;;5073434;28;19920;-75
2022/05/26 08:10:10;;;;;;;;;;;18.70;99.90;;;;;;5073482;28;19908;-77
2022/05/26 08:12:37;;;;;;;;;;;18.30;99.90;;;;;;5073439;28;20015;-76
2022/05/26 08:15:04;;;;;;;;;;;18.00;99.90;;;;;;5073321;28;19965;-76
2022/05/26 08:17:29;;;;;;;;;;;17.90;99.90;;;;;;5073382;28;19908;-76
2022/05/26 08:19:55;;;;;;;;;;;18.00;99.90;;;;;;5073313;28;19999;-77
2022/05/26 08:22:21;;;;;;;;;;;17.90;99.90;;;;;;5055426;28;19909;-76
2022/05/26 08:24:53;;;;;;;;;;;17.70;99.90;;;;;;5073386;28;19909;-75
2022/05/26 08:27:19;;;;;;;;;;;18.10;99.90;;;;;;5073356;28;20368;-75
2022/05/26 08:29:45;;;;;;;;;;;18.60;99.90;;;;;;5074659;28;19913;-75
2022/05/26 08:32:10;;;;;;;;;;;18.60;99.90;;;;;;5077248;28;19917;-75
2022/05/26 08:34:36;;;;;;;;;;;18.80;99.90;;;;;;5077410;28;19915;-75
2022/05/26 08:37:03;;;;;;;;;;;19.10;99.90;;;;;;5077142;28;19966;-76
2022/05/26 08:39:32;;;;;;;;;;;19.20;99.90;;;;;;5077117;28;19931;-76
2022/05/26 08:41:58;;;;;;;;;;;19.20;99.90;;;;;;5077126;28;20384;-76
2022/05/26 08:44:30;;;;;;;;;;;19.40;99.90;;;;;;5077058;28;19954;-76
2022/05/26 08:47:04;;;;;;;;;;;19.70;99.90;;;;;;5077214;28;19915;-76
2022/05/26 08:49:40;;;;;;;;;;;19.90;99.90;;;;;;5076880;28;19958;-77
2022/05/26 08:52:06;;;;;;;;;;;20.10;99.90;;;;;;5076909;28;19940;-77
2022/05/26 08:54:36;;;;;;;;;;;20.30;99.90;;;;;;5058872;28;19913;-77
2022/05/26 08:57:02;;;;;;;;;;;20.70;99.90;;;;;;5076832;28;19908;-76
2022/05/26 08:59:31;;;;;;;;;;;20.70;98.60;;;;;;5076634;28;19962;-77
2022/05/26 09:02:02;;;;;;;;;;;20.40;97.80;;;;;;5058752;28;19974;-74
2022/05/26 09:04:28;;;;;;;;;;;20.30;98.50;;;;;;5076668;28;19992;-76
2022/05/26 09:15:14;;;;;;;;;;;19.20;99.90;;;;;;5076684;28;19970;-78
2022/05/26 09:17:40;;;;;;;;;;;19.10;99.90;;;;;;5076547;28;19908;-77
2022/05/26 09:20:22;;;;;;;;;;;19.00;99.90;;;;;;5058417;28;19915;-75
2022/05/26 09:22:47;;;;;;;;;;;19.20;99.90;;;;;;5076352;28;19915;-75
2022/05/26 09:25:32;;;;;;;;;;;19.20;99.90;;;;;;5076693;28;19987;-76
2022/05/26 09:27:57;;;;;;;;;;;19.10;99.90;;;;;;5058178;28;19908;-75
2022/05/26 09:30:27;;;;;;;;;;;19.40;99.90;;;;;;5076227;28;20284;-75
2022/05/26 09:32:53;;;;;;;;;;;19.60;99.90;;;;;;5058182;28;19909;-75
2022/05/26 09:35:19;;;;;;;;;;;19.30;99.90;;;;;;5075979;28;19909;-75
2022/05/26 09:37:46;;;;;;;;;;;19.10;99.90;;;;;;5075505;28;20033;-76
2022/05/26 09:40:18;;;;;;;;;;;19.30;99.90;;;;;;5075325;28;20266;-78
2022/05/26 09:42:45;;;;;;;;;;;19.30;99.90;;;;;;5075215;28;19908;-78
2022/05/26 09:45:13;;;;;;;;;;;19.80;99.90;;;;;;5075799;28;19909;-74
2022/05/26 09:47:39;;;;;;;;;;;19.90;99.90;;;;;;5057774;28;19962;-75
2022/05/26 09:50:07;;;;;;;;;;;20.00;99.90;;;;;;5075761;28;20375;-77
2022/05/26 09:52:44;;;;;;;;;;;20.10;99.90;;;;;;5057769;28;20368;-75
2022/05/26 09:55:17;;;;;;;;;;;20.00;99.80;;;;;;5056913;28;19955;-77
2022/05/26 09:57:43;;;;;;;;;;;19.70;99.90;;;;;;5075839;28;19967;-76
2022/05/26 10:00:29;;;;;;;;;;;19.30;99.90;;;;;;5075458;28;20292;-75
2022/05/26 10:02:55;;;;;;;;;;;18.70;99.90;;;;;;5075187;28;19944;-77
2022/05/26 10:05:20;;;;;;;;;;;18.90;99.90;;;;;;5075581;28;20376;-75
2022/05/26 10:07:46;;;;;;;;;;;18.90;99.90;;;;;;5075237;28;19957;-76
2022/05/26 10:10:19;;;;;;;;;;;19.10;99.90;;;;;;5057273;28;19908;-75
2022/05/26 10:13:03;;;;;;;;;;;19.10;99.90;;;;;;5075269;28;19957;-77
2022/05/26 10:15:44;;;;;;;;;;;19.00;99.90;;;;;;5075165;28;19909;-77
2022/05/26 10:18:13;;;;;;;;;;;18.60;99.90;;;;;;5075343;28;20003;-75
2022/05/26 10:20:41;;;;;;;;;;;18.90;99.90;;;;;;5075224;28;19908;-77
2022/05/26 10:23:25;;;;;;;;;;;19.50;99.90;;;;;;5075072;28;19909;-74
2022/05/26 10:26:11;;;;;;;;;;;20.00;99.90;;;;;;5074983;28;19940;-74
2022/05/26 10:28:45;;;;;;;;;;;20.30;99.70;;;;;;5074258;28;20269;-77
2022/05/26 10:31:11;;;;;;;;;;;20.60;98.90;;;;;;5074871;28;20372;-75
2022/05/26 10:34:03;;;;;;;;;;;20.70;97.50;;;;;;5074783;28;19931;-75
2022/05/26 10:36:43;;;;;;;;;;;20.20;98.10;;;;;;5071390;28;19920;-78
2022/05/26 10:39:29;;;;;;;;;;;20.30;98.40;;;;;;5075210;28;20338;-75
2022/05/26 10:41:58;;;;;;;;;;;20.40;98.70;;;;;;5073971;28;19908;-76
2022/05/26 10:44:34;;;;;;;;;;;20.50;96.60;;;;;;5074533;28;19909;-76
2022/05/26 10:47:02;;;;;;;;;;;20.20;97.90;;;;;;5056734;28;19939;-76
2022/05/26 10:49:34;;;;;;;;;;;20.50;97.50;;;;;;5074642;28;19912;-76
2022/05/26 10:52:18;;;;;;;;;;;20.90;96.10;;;;;;5074539;28;19908;-75
2022/05/26 10:54:54;;;;;;;;;;;21.20;95.10;;;;;;5056562;28;19916;-76
2022/05/26 10:57:33;;;;;;;;;;;20.90;94.60;;;;;;5074347;28;19909;-75
2022/05/26 11:00:00;;;;;;;;;;;21.10;94.90;;;;;;5074578;28;19961;-76
2022/05/26 11:02:32;;;;;;;;;;;21.40;94.50;;;;;;5074427;28;19908;-76
2022/05/26 11:05:08;;;;;;;;;;;21.40;93.70;;;;;;5074551;28;19916;-76
2022/05/26 11:07:43;;;;;;;;;;;21.40;94.10;;;;;;5056366;28;19959;-77
2022/05/26 11:10:24;;;;;;;;;;;21.10;94.80;;;;;;5074209;28;20281;-76
2022/05/26 11:13:00;;;;;;;;;;;21.30;94.70;;;;;;5074224;28;19909;-75
2022/05/26 11:18:28;;;;;;;;;;;21.50;93.70;;;;;;5073787;28;19962;-74
2022/05/26 11:20:56;;;;;;;;;;;21.60;93.20;;;;;;5073948;28;19909;-78
2022/05/26 11:23:23;;;;;;;;;;;21.80;93.20;;;;;;5074078;28;20286;-75
2022/05/26 11:25:48;;;;;;;;;;;22.10;93.10;;;;;;5073901;28;19915;-75
2022/05/26 11:28:17;;;;;;;;;;;22.20;92.80;;;;;;5073870;28;19917;-77
2022/05/26 11:36:38;;;;;;;;;;;21.80;93.10;;;;;;5073588;28;19927;-76
2022/05/26 11:39:08;;;;;;;;;;;22.00;92.60;;;;;;5073859;28;19912;-76
2022/05/26 11:41:54;;;;;;;;;;;22.20;92.20;;;;;;5055801;28;20364;-76
2022/05/26 11:44:45;;;;;;;;;;;22.00;92.80;;;;;;5072948;28;20398;-75
2022/05/26 11:47:11;;;;;;;;;;;22.30;92.40;;;;;;5049995;28;20003;-74
2022/05/26 11:49:43;;;;;;;;;;;22.20;92.10;;;;;;5073585;28;20011;-75
2022/05/26 11:52:22;;;;;;;;;;;21.90;91.90;;;;;;5073685;28;19955;-75
2022/05/26 11:54:59;;;;;;;;;;;21.80;92.40;;;;;;5073647;28;19956;-77
2022/05/26 11:57:43;;;;;;;;;;;21.90;92.00;;;;;;5074020;28;19908;-76
2022/05/26 12:00:17;;;;;;;;;;;22.00;92.40;;;;;;5055472;28;20249;-75
2022/05/26 12:02:45;;;;;;;;;;;22.40;92.00;;;;;;5073568;28;19913;-76
2022/05/26 12:05:28;;;;;;;;;;;22.50;92.00;;;;;;5072941;28;19978;-76
2022/05/26 12:08:03;;;;;;;;;;;22.20;91.90;;;;;;5073601;28;19909;-76
2022/05/26 12:10:36;;;;;;;;;;;22.40;92.10;;;;;;5073483;28;20386;-78
2022/05/26 12:13:20;;;;;;;;;;;22.90;90.70;;;;;;5073350;28;20003;-76
2022/05/26 12:16:22;;;;;;;;;;;22.60;90.50;;;;;;5073596;28;19908;-76
2022/05/26 12:18:48;;;;;;;;;;;22.60;91.00;;;;;;5011662;28;19917;-77
2022/05/26 12:21:16;;;;;;;;;;;22.50;90.60;;;;;;5060561;28;20287;-75
2022/05/26 12:23:42;;;;;;;;;;;22.30;91.20;;;;;;5055525;28;19920;-75
2022/05/26 12:26:28;;;;;;;;;;;22.50;91.20;;;;;;5073307;28;19935;-75
2022/05/26 12:28:55;;;;;;;;;;;22.60;90.70;;;;;;5073400;28;20053;-75
2022/05/26 12:31:21;;;;;;;;;;;22.90;90.50;;;;;;5073433;28;20395;-76
2022/05/26 12:33:55;;;;;;;;;;;22.50;91.30;;;;;;5073368;28;20443;-76
2022/05/26 12:36:20;;;;;;;;;;;22.30;91.30;;;;;;5073159;28;20011;-74
2022/05/26 12:39:01;;;;;;;;;;;22.40;91.30;;;;;;5073236;28;19959;-76
2022/05/26 12:41:30;;;;;;;;;;;22.70;90.50;;;;;;5073443;28;19913;-76
2022/05/26 12:44:05;;;;;;;;;;;22.50;90.40;;;;;;5073199;28;19951;-76
2022/05/26 12:46:39;;;;;;;;;;;22.60;89.70;;;;;;5054927;28;20000;-76
2022/05/26 12:49:05;;;;;;;;;;;22.20;90.30;;;;;;5073317;28;19912;-76
2022/05/26 12:51:37;;;;;;;;;;;22.50;90.60;;;;;;5073317;28;19909;-75
2022/05/26 12:54:17;;;;;;;;;;;22.60;90.70;;;;;;5073110;28;20273;-77
2022/05/26 12:56:48;;;;;;;;;;;22.10;91.30;;;;;;5073094;28;19912;-75
2022/05/26 12:59:15;;;;;;;;;;;22.10;91.30;;;;;;5073314;28;19916;-76
2022/05/26 13:01:41;;;;;;;;;;;21.80;92.50;;;;;;5073026;28;19909;-76
2022/05/26 13:04:09;;;;;;;;;;;22.10;92.10;;;;;;5073071;28;19965;-75
2022/05/26 13:06:39;;;;;;;;;;;21.90;91.80;;;;;;5054916;28;19909;-75
2022/05/26 13:09:10;;;;;;;;;;;22.10;92.10;;;;;;5073089;28;19920;-75
2022/05/26 13:11:42;;;;;;;;;;;21.80;92.40;;;;;;5072967;28;19995;-75
2022/05/26 13:14:14;;;;;;;;;;;21.60;92.90;;;;;;5072969;28;19932;-77
2022/05/26 13:16:41;;;;;;;;;;;21.80;92.70;;;;;;5074040;28;19995;-76
2022/05/26 13:19:09;;;;;;;;;;;21.80;92.20;;;;;;5076613;28;20296;-76
2022/05/26 13:21:34;;;;;;;;;;;21.60;92.50;;;;;;5058360;28;19957;-76
2022/05/26 13:24:00;;;;;;;;;;;21.20;92.70;;;;;;5076411;28;19908;-77
2022/05/26 13:26:26;;;;;;;;;;;21.40;93.90;;;;;;5076351;28;19909;-75
2022/05/26 13:28:56;;;;;;;;;;;21.60;93.60;;;;;;5076147;28;19919;-75
2022/05/26 13:34:10;;;;;;;;;;;22.20;91.60;;;;;;5064814;28;19934;-76
2022/05/26 13:36:45;;;;;;;;;;;22.40;91.40;;;;;;5075915;28;19920;-75
2022/05/26 13:39:22;;;;;;;;;;;22.50;91.10;;;;;;5076128;28;19908;-77
2022/05/26 13:41:50;;;;;;;;;;;22.60;90.50;;;;;;5075988;28;19909;-78
2022/05/26 13:44:36;;;;;;;;;;;23.00;90.50;;;;;;5075993;28;19909;-77
2022/05/26 13:47:05;;;;;;;;;;;23.20;90.20;;;;;;5074454;28;19999;-75
2022/05/26 13:49:32;;;;;;;;;;;22.60;90.00;;;;;;5075817;28;20003;-76
2022/05/26 13:51:58;;;;;;;;;;;22.40;90.40;;;;;;5057878;28;19915;-75
2022/05/26 13:54:29;;;;;;;;;;;22.70;90.50;;;;;;5075801;28;19909;-77
2022/05/26 13:56:57;;;;;;;;;;;22.60;90.10;;;;;;5075707;28;19909;-75
2022/05/26 13:59:23;;;;;;;;;;;22.90;90.50;;;;;;5075749;28;19916;-77
2022/05/26 14:02:04;;;;;;;;;;;23.30;88.70;;;;;;5076008;28;20333;-76
2022/05/26 14:04:31;;;;;;;;;;;23.30;88.20;;;;;;5075868;28;19908;-76
2022/05/26 14:06:57;;;;;;;;;;;23.10;89.10;;;;;;5075534;28;19909;-77
2022/05/26 14:09:26;;;;;;;;;;;22.90;89.30;;;;;;5075380;28;19921;-75
2022/05/26 14:12:05;;;;;;;;;;;22.50;90.20;;;;;;5075351;28;19931;-77
2022/05/26 14:14:41;;;;;;;;;;;22.50;91.00;;;;;;5075614;28;19947;-77
2022/05/26 14:17:08;;;;;;;;;;;22.10;91.20;;;;;;5075421;28;19908;-75
2022/05/26 14:19:35;;;;;;;;;;;21.80;92.30;;;;;;5075208;28;20283;-77
2022/05/26 14:22:02;;;;;;;;;;;22.00;92.40;;;;;;5057253;28;20006;-76
2022/05/26 14:24:49;;;;;;;;;;;22.30;91.50;;;;;;5075287;28;20375;-76
2022/05/26 14:27:16;;;;;;;;;;;22.00;92.50;;;;;;5074722;28;19913;-76
2022/05/26 14:29:43;;;;;;;;;;;21.60;92.60;;;;;;5075094;28;19919;-75
2022/05/26 14:32:11;;;;;;;;;;;21.20;93.70;;;;;;5075184;28;19916;-75
2022/05/26 14:34:37;;;;;;;;;;;20.80;95.50;;;;;;5075246;28;20407;-76
2022/05/26 14:37:02;;;;;;;;;;;20.70;97.00;;;;;;5074734;28;19924;-76
2022/05/26 14:39:28;;;;;;;;;;;20.90;96.50;;;;;;5074907;28;19952;-76
2022/05/26 14:41:55;;;;;;;;;;;20.90;97.00;;;;;;5074814;28;19912;-75
2022/05/26 14:44:21;;;;;;;;;;;20.90;96.50;;;;;;5074976;28;20372;-76
2022/05/26 14:46:46;;;;;;;;;;;21.40;96.60;;;;;;5074757;28;19909;-75
2022/05/26 14:49:12;;;;;;;;;;;21.70;95.10;;;;;;5074814;28;20379;-76
2022/05/26 14:51:39;;;;;;;;;;;22.00;93.50;;;;;;5074566;28;20280;-75
2022/05/26 14:56:49;;;;;;;;;;;22.60;93.20;;;;;;5074267;28;19962;-74
2022/05/26 14:59:15;;;;;;;;;;;22.50;92.70;;;;;;5074299;28;19917;-75
2022/05/26 15:01:41;;;;;;;;;;;22.60;92.10;;;;;;5074404;28;19909;-77
2022/05/26 15:04:06;;;;;;;;;;;22.50;92.00;;;;;;5074549;28;19915;-75
2022/05/26 15:06:42;;;;;;;;;;;22.60;92.10;;;;;;5074279;28;19908;-77
2022/05/26 15:09:14;;;;;;;;;;;23.00;90.80;;;;;;5074277;28;19913;-78
2022/05/26 15:11:41;;;;;;;;;;;22.80;91.10;;;;;;5056302;28;19967;-76
2022/05/26 15:14:07;;;;;;;;;;;22.70;91.00;;;;;;5074178;28;20285;-75
2022/05/26 15:16:33;;;;;;;;;;;23.00;90.90;;;;;;5074222;28;20387;-74